RTG weather

Frans Sales Lega Airport
Satar Tacik-Flores Island, Nusa Tenggara Timur, Indonesia

Public forecast

Using degrees Celsius for public forecast. Weather courtesy of forecast.io.

METAR (pilot weather report)

Report is more than 6 hours old.

Closest report is El Tari Airport, 211.5 nm (391.7 km) ESE. Retrieved 2019/05/20 12:30 UTC (11 hours ago):

WATT 201230Z 11008KT 8000 SCT018 27/22 Q1014 NOSIG

TAF (pilot weather forecast)

Closest forecast is El Tari Airport, 211.5 nm (391.7 km) ESE. Retrieved 2019/05/20 18:00 UTC (6 hours ago):

TAF WATT 201700Z 2018/2118 12003KT 8000 SCT018 BECMG 2100/2102 11015KT